Time;durP1;ratioP1;P1;durP2;ratioP2;P2;SDS_P1;SDS_P2;PMS_P1;PMS_P2;Temp;Humidity;BMP_temperature;BMP_pressure;BME280_temperature;BME280_humidity;BME280_pressure;Samples;Min_cycle;Max_cycle;Signal;HPM_P1;HPM_P2
2022/12/31 00:02:11;;;;;;;24.15;3.85;;;9.60;99.90;;;;;;4992388;28;20062;-85
2022/12/31 00:04:40;;;;;;;20.15;3.53;;;9.50;99.90;;;;;;4991320;28;20046;-85
2022/12/31 00:07:09;;;;;;;28.77;5.18;;;9.60;99.90;;;;;;4986340;28;20048;-86
2022/12/31 00:09:34;;;;;;;26.75;4.43;;;8.40;99.90;;;;;;4967724;28;20092;-86
2022/12/31 00:12:09;;;;;;;23.15;3.92;;;8.80;99.90;;;;;;5001428;28;21778;-87
2022/12/31 00:14:38;;;;;;;25.00;4.30;;;9.40;99.90;;;;;;5006323;28;20391;-85
2022/12/31 00:17:07;;;;;;;22.30;4.05;;;9.40;99.90;;;;;;5004851;28;20056;-86
2022/12/31 00:19:36;;;;;;;28.92;5.20;;;9.60;99.90;;;;;;4985795;28;20050;-85
2022/12/31 00:22:02;;;;;;;21.70;4.88;;;8.20;99.90;;;;;;4985059;28;20480;-84
2022/12/31 00:24:29;;;;;;;23.55;4.35;;;8.50;99.90;;;;;;4975160;28;20159;-84
2022/12/31 00:27:02;;;;;;;29.70;5.20;;;9.40;99.90;;;;;;4987200;28;20050;-86
2022/12/31 00:29:39;;;;;;;24.95;4.07;;;9.30;99.90;;;;;;4984205;28;20073;-85
2022/12/31 00:32:07;;;;;;;24.48;4.32;;;9.30;99.90;;;;;;4987662;28;20104;-86
2022/12/31 00:34:50;;;;;;;24.52;4.38;;;8.60;99.90;;;;;;4986596;28;20043;-85
2022/12/31 00:37:16;;;;;;;25.50;4.68;;;9.20;99.90;;;;;;4987017;28;20299;-85
2022/12/31 00:39:42;;;;;;;33.55;5.75;;;9.30;99.90;;;;;;5002933;28;20780;-86
2022/12/31 00:42:08;;;;;;;27.08;5.35;;;9.40;99.90;;;;;;5008306;28;20609;-86
2022/12/31 00:44:37;;;;;;;27.85;4.78;;;9.30;99.90;;;;;;4989821;28;20767;-84
2022/12/31 00:47:15;;;;;;;33.15;5.15;;;9.20;99.90;;;;;;4989787;28;20045;-85
2022/12/31 00:49:41;;;;;;;28.52;5.63;;;9.20;99.90;;;;;;4973174;28;20060;-85
2022/12/31 00:52:12;;;;;;;28.15;5.15;;;9.30;99.90;;;;;;5003287;28;20427;-86
2022/12/31 00:54:38;;;;;;;21.80;4.20;;;9.30;99.90;;;;;;4989040;28;20055;-85
2022/12/31 00:57:04;;;;;;;30.88;4.85;;;9.30;99.90;;;;;;5002402;28;20042;-84
2022/12/31 00:59:30;;;;;;;28.20;4.82;;;8.30;99.90;;;;;;4988111;28;20065;-85
2022/12/31 01:01:58;;;;;;;22.15;4.25;;;9.20;99.90;;;;;;4987577;28;20038;-85
2022/12/31 01:04:24;;;;;;;30.88;5.03;;;9.30;99.90;;;;;;4970112;28;21722;-84
2022/12/31 01:06:52;;;;;;;26.73;4.13;;;9.20;99.90;;;;;;5005374;28;20595;-86
2022/12/31 01:09:20;;;;;;;32.83;4.75;;;9.20;99.90;;;;;;5007057;28;20049;-85
2022/12/31 01:11:48;;;;;;;27.20;4.22;;;9.20;99.90;;;;;;5003746;28;20743;-85
2022/12/31 01:14:17;;;;;;;24.08;4.18;;;9.30;99.90;;;;;;4985863;28;20062;-85
2022/12/31 01:16:47;;;;;;;29.27;3.90;;;9.20;99.90;;;;;;5019584;28;20376;-85
2022/12/31 01:19:18;;;;;;;27.20;4.28;;;9.20;99.90;;;;;;4985931;28;21679;-86
2022/12/31 01:21:45;;;;;;;21.48;3.88;;;9.20;99.90;;;;;;4985301;28;20458;-86
2022/12/31 01:24:13;;;;;;;22.05;3.63;;;9.30;99.90;;;;;;5009218;28;20069;-85
2022/12/31 01:26:40;;;;;;;18.73;3.80;;;9.30;99.90;;;;;;4990119;28;20132;-86
2022/12/31 01:29:07;;;;;;;22.85;4.68;;;9.30;99.90;;;;;;5007501;28;20140;-87
2022/12/31 01:31:35;;;;;;;27.23;3.88;;;9.30;99.90;;;;;;4987471;28;20049;-85
2022/12/31 01:34:01;;;;;;;25.38;3.88;;;9.30;99.90;;;;;;4992187;28;20058;-84
2022/12/31 01:36:29;;;;;;;26.30;3.80;;;9.20;99.90;;;;;;5003952;28;20057;-85
2022/12/31 01:38:58;;;;;;;17.73;3.97;;;9.30;99.90;;;;;;4992703;28;20116;-84
2022/12/31 01:41:46;;;;;;;19.10;3.95;;;9.30;99.90;;;;;;4993383;28;20046;-84
2022/12/31 01:44:12;;;;;;;18.08;3.22;;;9.30;99.90;;;;;;4986141;28;20140;-85
2022/12/31 01:46:46;;;;;;;22.33;3.10;;;8.20;99.90;;;;;;4986268;28;20038;-85
2022/12/31 01:49:41;;;;;;;18.42;3.03;;;9.20;99.90;;;;;;4993643;28;20506;-86
2022/12/31 01:52:36;;;;;;;24.45;4.00;;;9.30;99.90;;;;;;4988879;28;20045;-85
2022/12/31 01:55:13;;;;;;;20.65;3.85;;;9.20;99.90;;;;;;4982940;28;20957;-85
2022/12/31 01:57:41;;;;;;;15.27;3.13;;;9.20;99.90;;;;;;4994754;28;20045;-84
2022/12/31 02:00:08;;;;;;;20.27;3.30;;;9.30;99.90;;;;;;4994961;28;20132;-85
2022/12/31 02:02:34;;;;;;;14.02;3.22;;;9.10;99.90;;;;;;4986451;28;20054;-85
2022/12/31 02:05:04;;;;;;;18.85;2.92;;;8.20;99.90;;;;;;4989445;28;20105;-85
2022/12/31 02:07:33;;;;;;;13.95;2.97;;;9.10;99.90;;;;;;5011124;28;20038;-86
2022/12/31 02:10:01;;;;;;;15.50;2.97;;;9.00;99.90;;;;;;5005384;28;20053;-83
2022/12/31 02:12:27;;;;;;;16.67;2.78;;;9.10;99.90;;;;;;4988737;28;20046;-84
2022/12/31 02:14:54;;;;;;;12.90;2.25;;;9.10;99.90;;;;;;4994776;28;20110;-85
2022/12/31 02:17:40;;;;;;;17.25;3.42;;;9.10;99.90;;;;;;4987601;28;20054;-85
2022/12/31 02:20:24;;;;;;;18.70;3.38;;;9.10;99.90;;;;;;4992197;28;20056;-84
2022/12/31 02:23:15;;;;;;;18.20;3.08;;;9.10;99.90;;;;;;5004441;28;20085;-85
2022/12/31 02:25:56;;;;;;;19.67;2.95;;;9.10;99.90;;;;;;4996302;28;20396;-85
2022/12/31 02:28:52;;;;;;;16.13;2.45;;;9.10;99.90;;;;;;5005207;28;20069;-85
2022/12/31 02:31:26;;;;;;;13.33;3.23;;;9.00;99.90;;;;;;5004469;28;20042;-84
2022/12/31 02:34:25;;;;;;;12.02;2.75;;;9.10;99.90;;;;;;5008086;28;20054;-86
2022/12/31 02:36:53;;;;;;;13.15;2.63;;;9.10;99.90;;;;;;4994471;28;20484;-85
2022/12/31 02:39:25;;;;;;;17.73;2.72;;;9.00;99.90;;;;;;4991063;28;20485;-85
2022/12/31 02:41:51;;;;;;;17.15;2.83;;;9.70;99.90;;;;;;4989396;28;20054;-85
2022/12/31 02:44:38;;;;;;;20.35;2.80;;;8.90;99.90;;;;;;4955210;28;20057;-84
2022/12/31 02:47:07;;;;;;;14.25;2.72;;;9.10;99.90;;;;;;5005881;28;20092;-86
2022/12/31 02:49:55;;;;;;;11.52;2.38;;;9.10;99.90;;;;;;4990325;28;20045;-84
2022/12/31 02:53:09;;;;;;;16.70;2.58;;;8.10;99.90;;;;;;5005461;28;20054;-86
2022/12/31 02:55:43;;;;;;;15.75;2.63;;;9.00;99.90;;;;;;4893813;29;20183;-85
2022/12/31 03:06:54;;;;;;;15.77;2.50;;;8.90;99.90;;;;;;4996510;28;20053;-85
2022/12/31 03:09:24;;;;;;;12.13;2.45;;;9.00;99.90;;;;;;4974873;28;20053;-86
2022/12/31 03:14:40;;;;;;;14.82;2.50;;;8.80;99.90;;;;;;5004871;28;20087;-84
2022/12/31 03:17:14;;;;;;;21.25;2.30;;;8.80;99.90;;;;;;4991950;28;20506;-86
2022/12/31 03:22:30;;;;;;;12.80;2.63;;;8.70;99.90;;;;;;5011426;28;20569;-85
2022/12/31 03:27:47;;;;;;;9.80;2.10;;;8.70;99.90;;;;;;5020138;28;20049;-86
2022/12/31 03:30:16;;;;;;;10.88;2.35;;;8.60;99.90;;;;;;4973932;28;20061;-85
2022/12/31 03:32:43;;;;;;;12.35;2.25;;;8.70;99.90;;;;;;4988015;28;20531;-85
2022/12/31 03:35:21;;;;;;;11.20;2.15;;;8.70;99.90;;;;;;4984599;28;20084;-85
2022/12/31 03:37:48;;;;;;;11.60;2.33;;;8.70;99.90;;;;;;5005523;28;20100;-86
2022/12/31 03:40:21;;;;;;;12.68;1.92;;;8.70;99.90;;;;;;4991832;28;20045;-85
2022/12/31 03:42:49;;;;;;;9.15;2.47;;;8.80;99.90;;;;;;5005856;28;20136;-86
2022/12/31 03:45:18;;;;;;;11.85;1.98;;;8.80;99.90;;;;;;4989455;28;20069;-85
2022/12/31 03:47:44;;;;;;;18.40;2.33;;;8.80;99.90;;;;;;4986062;28;20109;-84
2022/12/31 03:50:12;;;;;;;14.73;2.33;;;8.80;99.90;;;;;;5002842;28;20067;-87
2022/12/31 03:52:38;;;;;;;13.88;2.38;;;8.80;99.90;;;;;;4985358;28;20148;-87
2022/12/31 03:55:05;;;;;;;13.75;2.13;;;8.80;99.90;;;;;;4987909;28;20304;-85
2022/12/31 03:57:34;;;;;;;13.38;2.30;;;8.80;99.90;;;;;;4987692;28;20045;-86
2022/12/31 04:00:00;;;;;;;15.70;2.58;;;8.70;99.90;;;;;;5004258;28;20104;-84
2022/12/31 04:02:26;;;;;;;9.15;2.15;;;8.90;99.90;;;;;;5005402;28;20041;-85
2022/12/31 04:04:55;;;;;;;11.68;2.38;;;8.90;99.90;;;;;;4985603;28;20135;-85
2022/12/31 04:07:20;;;;;;;13.75;2.30;;;8.20;99.90;;;;;;4990177;28;20049;-86
2022/12/31 04:09:46;;;;;;;14.35;2.42;;;8.70;99.90;;;;;;4982101;28;20141;-84
2022/12/31 04:12:12;;;;;;;12.40;2.72;;;8.70;99.90;;;;;;4958813;28;20124;-85
2022/12/31 04:14:38;;;;;;;9.70;2.20;;;8.70;99.90;;;;;;4987903;28;20054;-84
2022/12/31 04:17:04;;;;;;;11.38;2.10;;;8.70;99.90;;;;;;4988695;28;20057;-84
2022/12/31 04:19:29;;;;;;;13.13;2.22;;;8.60;99.90;;;;;;4984702;28;22062;-86
2022/12/31 04:21:55;;;;;;;9.40;1.85;;;8.80;99.90;;;;;;5020855;28;20037;-85
2022/12/31 04:24:23;;;;;;;9.35;1.80;;;8.70;99.90;;;;;;4986471;28;20049;-84
2022/12/31 04:26:49;;;;;;;11.77;2.28;;;8.30;99.90;;;;;;4982409;28;20046;-84
2022/12/31 04:29:18;;;;;;;6.90;1.65;;;8.70;99.90;;;;;;4973297;28;20049;-84
2022/12/31 04:31:46;;;;;;;7.40;1.90;;;8.90;99.90;;;;;;4989032;28;20038;-84
2022/12/31 04:34:14;;;;;;;11.88;2.00;;;8.80;99.90;;;;;;4989993;28;20073;-84
2022/12/31 04:36:40;;;;;;;10.45;2.20;;;8.80;99.90;;;;;;4991727;28;20048;-84
2022/12/31 04:39:07;;;;;;;14.32;2.20;;;8.80;99.90;;;;;;4991886;28;20034;-84
2022/12/31 04:41:33;;;;;;;9.70;1.88;;;8.80;99.90;;;;;;4988829;28;20128;-85
2022/12/31 04:43:59;;;;;;;10.27;2.00;;;8.70;99.90;;;;;;4978472;28;20527;-84
2022/12/31 04:46:51;;;;;;;16.30;2.30;;;8.70;99.90;;;;;;4992388;28;20049;-85
2022/12/31 04:49:17;;;;;;;11.95;2.00;;;8.80;99.90;;;;;;4993755;28;20042;-85
2022/12/31 04:51:43;;;;;;;10.90;1.85;;;8.80;99.90;;;;;;5007674;28;20050;-85
2022/12/31 04:54:09;;;;;;;10.93;2.30;;;8.90;99.90;;;;;;4987542;28;20070;-85
2022/12/31 04:56:37;;;;;;;11.35;2.30;;;8.20;99.90;;;;;;4976254;28;20052;-84
2022/12/31 04:59:07;;;;;;;13.48;2.58;;;8.90;99.90;;;;;;4996662;28;20050;-85
2022/12/31 05:01:35;;;;;;;11.65;2.13;;;8.90;99.90;;;;;;5001943;28;20074;-85
2022/12/31 05:04:01;;;;;;;12.95;2.25;;;9.10;99.90;;;;;;5001530;28;20366;-86
2022/12/31 05:06:27;;;;;;;11.55;2.33;;;8.90;99.90;;;;;;5002361;28;20506;-85
2022/12/31 05:08:55;;;;;;;12.95;1.90;;;8.90;99.90;;;;;;4983300;28;20076;-85
2022/12/31 05:11:21;;;;;;;10.13;2.20;;;8.90;99.90;;;;;;5016477;28;20069;-85
2022/12/31 05:13:47;;;;;;;12.80;2.45;;;9.00;99.90;;;;;;5010586;28;20046;-85
2022/12/31 05:16:15;;;;;;;9.77;1.90;;;9.00;99.90;;;;;;4991422;28;20053;-85
2022/12/31 05:18:41;;;;;;;8.25;1.83;;;9.20;99.90;;;;;;5008311;28;20046;-85
2022/12/31 05:21:07;;;;;;;9.07;2.33;;;9.10;99.90;;;;;;5006338;28;20053;-85
2022/12/31 05:23:38;;;;;;;7.38;2.10;;;9.20;99.90;;;;;;4979522;28;20054;-87
2022/12/31 05:26:07;;;;;;;8.55;2.00;;;9.10;99.90;;;;;;4975283;28;20043;-85
2022/12/31 05:28:35;;;;;;;10.43;1.88;;;8.00;99.90;;;;;;5009415;28;20053;-85
2022/12/31 05:31:04;;;;;;;8.73;1.70;;;8.00;99.90;;;;;;4995267;28;20053;-86
2022/12/31 05:33:30;;;;;;;12.10;2.10;;;9.00;99.90;;;;;;4990327;28;20054;-86
2022/12/31 05:35:57;;;;;;;10.82;1.85;;;9.10;99.90;;;;;;4993389;28;20046;-86
2022/12/31 05:38:26;;;;;;;10.40;2.30;;;9.00;99.90;;;;;;4988629;28;20075;-85
2022/12/31 05:41:03;;;;;;;12.27;2.42;;;8.50;99.90;;;;;;5000450;28;20045;-86
2022/12/31 05:43:37;;;;;;;12.25;2.10;;;9.10;99.90;;;;;;4989650;28;20072;-86
2022/12/31 05:46:09;;;;;;;13.20;2.08;;;9.10;99.90;;;;;;4973026;28;20073;-85
2022/12/31 05:48:37;;;;;;;11.57;2.40;;;8.50;99.90;;;;;;4993718;28;20063;-86
2022/12/31 05:51:11;;;;;;;9.68;2.13;;;10.60;99.90;;;;;;5007385;28;20092;-86
2022/12/31 05:53:42;;;;;;;11.35;2.33;;;9.50;99.90;;;;;;4992034;28;21562;-88
2022/12/31 05:56:08;;;;;;;10.32;2.50;;;9.20;99.90;;;;;;4998444;28;20131;-85
2022/12/31 05:58:34;;;;;;;11.27;2.50;;;9.40;99.90;;;;;;4992703;28;20077;-84
2022/12/31 06:01:01;;;;;;;9.27;2.53;;;9.20;99.90;;;;;;4973146;28;20269;-85
2022/12/31 06:03:30;;;;;;;16.63;3.03;;;9.30;99.90;;;;;;4988847;28;20499;-86
2022/12/31 06:05:56;;;;;;;11.52;2.83;;;9.40;99.90;;;;;;4992621;28;20050;-84
2022/12/31 06:08:32;;;;;;;11.25;2.95;;;9.40;99.90;;;;;;4990134;28;20041;-85
2022/12/31 06:11:07;;;;;;;9.02;2.30;;;9.30;99.90;;;;;;4992556;28;20260;-85
2022/12/31 06:13:44;;;;;;;7.68;2.20;;;9.20;99.90;;;;;;5005382;28;20061;-87
2022/12/31 06:16:12;;;;;;;10.23;2.35;;;9.20;99.90;;;;;;4992922;28;20107;-85
2022/12/31 06:18:41;;;;;;;12.25;2.45;;;9.20;99.90;;;;;;4990271;28;20105;-84
2022/12/31 06:21:07;;;;;;;10.98;2.75;;;9.10;99.90;;;;;;5011523;28;20048;-85
2022/12/31 06:23:33;;;;;;;10.68;2.33;;;9.30;99.90;;;;;;4986892;28;20139;-85
2022/12/31 06:26:04;;;;;;;11.05;2.42;;;9.10;99.90;;;;;;5005132;28;20664;-85
2022/12/31 06:28:30;;;;;;;8.30;2.05;;;9.10;99.90;;;;;;4993742;28;20388;-85
2022/12/31 06:31:03;;;;;;;7.78;2.00;;;9.10;99.90;;;;;;4988258;28;20041;-85
2022/12/31 06:33:29;;;;;;;9.02;1.85;;;9.00;99.90;;;;;;5007679;28;20705;-86
2022/12/31 06:35:58;;;;;;;8.93;1.65;;;9.10;99.90;;;;;;4988719;28;20041;-84
2022/12/31 06:38:26;;;;;;;13.27;1.75;;;9.00;99.90;;;;;;5009559;28;20072;-84
2022/12/31 06:40:54;;;;;;;10.50;1.92;;;9.00;99.90;;;;;;4991543;28;20464;-86
2022/12/31 06:43:20;;;;;;;7.13;1.55;;;8.90;99.90;;;;;;4987954;28;20044;-85
2022/12/31 06:45:49;;;;;;;10.55;1.50;;;8.90;99.90;;;;;;4991708;28;20135;-85
2022/12/31 06:48:15;;;;;;;8.10;1.30;;;8.90;99.90;;;;;;4990323;28;20192;-84
2022/12/31 06:50:41;;;;;;;5.70;1.80;;;9.00;99.90;;;;;;5007898;28;20053;-86
2022/12/31 06:53:10;;;;;;;6.20;1.42;;;9.00;99.90;;;;;;5005538;28;21362;-85
2022/12/31 06:55:36;;;;;;;5.38;1.25;;;9.00;99.90;;;;;;5010151;28;20081;-85
2022/12/31 06:58:04;;;;;;;5.38;1.40;;;9.00;99.90;;;;;;4978203;28;20490;-85
2022/12/31 07:00:30;;;;;;;6.25;1.60;;;9.00;99.90;;;;;;4992476;28;20076;-85
2022/12/31 07:03:35;;;;;;;4.88;1.27;;;8.90;99.90;;;;;;4990716;28;20395;-84
2022/12/31 07:06:14;;;;;;;4.50;1.05;;;8.90;99.90;;;;;;4986550;28;20165;-84
2022/12/31 07:09:09;;;;;;;7.03;1.35;;;9.00;99.90;;;;;;4990932;28;20065;-84
2022/12/31 07:12:01;;;;;;;5.75;1.13;;;9.00;99.90;;;;;;5021704;28;20073;-84
2022/12/31 07:14:40;;;;;;;2.72;0.95;;;9.00;99.90;;;;;;4990502;28;20080;-84
2022/12/31 07:17:34;;;;;;;5.32;1.25;;;9.10;99.90;;;;;;4984318;28;20088;-83
2022/12/31 07:20:11;;;;;;;2.17;0.90;;;9.10;99.90;;;;;;4988922;28;20494;-84
2022/12/31 07:22:39;;;;;;;4.45;1.10;;;9.10;99.90;;;;;;5005967;28;20109;-84
2022/12/31 07:25:15;;;;;;;4.00;1.23;;;9.10;99.90;;;;;;4973043;28;20053;-86
2022/12/31 07:27:56;;;;;;;2.28;1.30;;;9.10;99.90;;;;;;4988847;28;20038;-83
2022/12/31 07:30:50;;;;;;;7.45;1.27;;;9.20;99.90;;;;;;4987216;28;20518;-84
2022/12/31 07:33:44;;;;;;;3.92;1.30;;;9.20;99.90;;;;;;4989485;28;20046;-85
2022/12/31 07:36:29;;;;;;;4.40;1.35;;;9.20;99.90;;;;;;4968136;28;20045;-84
2022/12/31 07:39:03;;;;;;;2.83;1.65;;;9.20;99.90;;;;;;4986291;28;22105;-85
2022/12/31 07:42:16;;;;;;;4.95;2.17;;;9.30;99.90;;;;;;4987359;28;20765;-84
2022/12/31 07:45:02;;;;;;;3.90;2.17;;;9.30;99.90;;;;;;4979086;28;20058;-85
2022/12/31 07:47:28;;;;;;;5.68;3.50;;;9.30;99.90;;;;;;4988099;28;20099;-87
2022/12/31 07:49:57;;;;;;;6.18;4.07;;;9.30;99.90;;;;;;4986270;28;20046;-86
2022/12/31 07:52:24;;;;;;;6.40;4.20;;;9.30;99.90;;;;;;4974898;28;20042;-84
2022/12/31 07:54:50;;;;;;;6.55;4.40;;;8.50;99.90;;;;;;4989199;28;20209;-86
2022/12/31 07:57:18;;;;;;;7.90;4.47;;;9.30;99.90;;;;;;4993659;28;20045;-84
2022/12/31 07:59:50;;;;;;;6.60;4.32;;;9.40;99.90;;;;;;4989593;28;20049;-84
2022/12/31 08:02:54;;;;;;;8.25;5.40;;;9.40;99.90;;;;;;5003645;28;20926;-82
2022/12/31 08:05:46;;;;;;;10.40;5.95;;;9.60;99.90;;;;;;4998351;28;20046;-85
2022/12/31 08:08:43;;;;;;;11.07;6.53;;;9.40;99.90;;;;;;4990299;28;20499;-87
2022/12/31 08:11:38;;;;;;;11.18;6.57;;;9.50;99.90;;;;;;4988022;28;20104;-87
2022/12/31 08:14:10;;;;;;;11.23;6.35;;;9.50;99.90;;;;;;4944385;28;20077;-88
2022/12/31 08:16:44;;;;;;;10.25;6.35;;;9.50;99.90;;;;;;5011202;28;20081;-86
2022/12/31 08:19:33;;;;;;;10.13;6.40;;;9.60;99.90;;;;;;4978026;28;20088;-88
2022/12/31 08:22:21;;;;;;;11.20;6.95;;;9.60;99.90;;;;;;4997113;28;20088;-87
2022/12/31 08:25:18;;;;;;;10.18;6.75;;;8.40;99.90;;;;;;4990809;28;20053;-86
2022/12/31 08:27:52;;;;;;;11.15;6.88;;;9.60;99.90;;;;;;4986217;28;20518;-84
2022/12/31 08:30:20;;;;;;;12.05;7.15;;;9.70;99.90;;;;;;4993281;28;20188;-84
2022/12/31 08:33:23;;;;;;;10.07;6.38;;;9.90;99.90;;;;;;5001847;28;20046;-84
2022/12/31 08:36:19;;;;;;;10.82;6.00;;;9.80;99.90;;;;;;5005029;28;20580;-84
2022/12/31 08:38:44;;;;;;;11.52;6.30;;;9.90;99.90;;;;;;4986385;28;20053;-85
2022/12/31 08:41:19;;;;;;;10.13;5.55;;;9.90;99.90;;;;;;4984702;28;20046;-84
2022/12/31 08:44:00;;;;;;;12.97;6.63;;;10.00;99.90;;;;;;4986055;28;20049;-84
2022/12/31 08:46:43;;;;;;;9.75;5.65;;;10.20;99.90;;;;;;5009724;28;20041;-84
2022/12/31 08:49:33;;;;;;;8.27;4.60;;;10.20;99.90;;;;;;5001693;28;20538;-89
2022/12/31 08:52:22;;;;;;;7.88;4.38;;;10.20;99.90;;;;;;4995231;28;20132;-88
2022/12/31 08:54:54;;;;;;;9.00;4.38;;;10.30;99.90;;;;;;4993542;28;20046;-86
2022/12/31 08:57:33;;;;;;;13.35;6.18;;;10.30;99.90;;;;;;5000925;28;20117;-87
2022/12/31 09:00:23;;;;;;;8.15;4.38;;;10.20;99.90;;;;;;5017061;28;20050;-90
2022/12/31 09:03:13;;;;;;;8.00;3.40;;;10.30;99.90;;;;;;5016234;28;20388;-86
2022/12/31 09:06:02;;;;;;;8.52;2.97;;;10.30;99.90;;;;;;4999347;28;20088;-89
2022/12/31 09:09:00;;;;;;;10.60;3.38;;;9.20;99.90;;;;;;5009345;28;20300;-86
2022/12/31 09:12:06;;;;;;;12.82;2.60;;;9.40;99.90;;;;;;4997138;28;20517;-91
2022/12/31 09:14:53;;;;;;;;;;;;;;;;;;;;;
2022/12/31 09:17:52;;;;;;;11.82;2.90;;;10.40;99.90;;;;;;5011177;28;20049;-89
2022/12/31 09:20:40;;;;;;;;;;;;;;;;;;;;;
2022/12/31 09:23:44;;;;;;;21.42;13.30;;;10.50;99.90;;;;;;5008960;28;20053;-89
2022/12/31 09:30:23;;;;;;;;;;;;;;;;;;;;;
2022/12/31 09:40:26;;;;;;;14.93;4.50;;;10.80;99.90;;;;;;4996989;28;20049;-89
2022/12/31 09:42:54;;;;;;;12.95;2.85;;;10.60;99.90;;;;;;5019074;28;20057;-87
2022/12/31 09:46:03;;;;;;;12.63;2.72;;;10.70;99.90;;;;;;4993758;28;20056;-88
2022/12/31 09:51:47;;;;;;;16.75;2.70;;;10.80;99.90;;;;;;5018905;28;20053;-89
2022/12/31 09:54:28;;;;;;;11.32;2.28;;;10.80;99.90;;;;;;4991629;28;20065;-86
2022/12/31 09:57:42;;;;;;;15.60;2.63;;;11.00;99.90;;;;;;4994943;28;20110;-89
2022/12/31 10:00:44;;;;;;;;;;;;;;;;;;;;;
2022/12/31 10:03:29;;;;;;;15.23;2.80;;;10.90;99.90;;;;;;5012886;28;20475;-85
2022/12/31 10:06:20;;;;;;;16.43;3.33;;;11.00;99.90;;;;;;4997679;28;20090;-86
2022/12/31 10:09:09;;;;;;;19.42;4.13;;;10.90;99.90;;;;;;5015783;28;20177;-88
2022/12/31 10:12:02;;;;;;;16.98;3.83;;;10.90;99.90;;;;;;5010854;28;20099;-87
2022/12/31 10:14:56;;;;;;;22.60;3.35;;;11.00;99.90;;;;;;4998240;28;20046;-87
2022/12/31 10:18:01;;;;;;;24.48;3.80;;;11.10;99.90;;;;;;5002497;28;20054;-90
2022/12/31 10:20:46;;;;;;;21.58;5.82;;;10.80;99.90;;;;;;4993499;28;20057;-87
2022/12/31 10:23:59;;;;;;;22.27;3.83;;;11.10;99.90;;;;;;4999189;28;20495;-88
2022/12/31 10:27:36;;;;;;;22.35;4.90;;;10.70;99.90;;;;;;5002075;28;20099;-85
2022/12/31 10:41:41;;;;;;;16.58;3.35;;;11.30;99.90;;;;;;4819768;29;20578;-88
2022/12/31 10:44:32;;;;;;;21.42;3.67;;;11.30;99.90;;;;;;4859219;29;20053;-91
2022/12/31 10:47:43;;;;;;;18.42;4.70;;;11.40;99.90;;;;;;4963308;28;20066;-89
2022/12/31 10:50:26;;;;;;;17.08;4.57;;;10.80;99.90;;;;;;4991139;28;20053;-85
2022/12/31 10:53:25;;;;;;;16.88;4.18;;;11.50;99.90;;;;;;4988558;28;20080;-83
2022/12/31 10:56:21;;;;;;;16.85;4.05;;;11.40;99.90;;;;;;4982006;28;20065;-90
2022/12/31 10:59:32;;;;;;;16.20;4.22;;;11.40;99.90;;;;;;4974597;28;20050;-87
2022/12/31 11:02:39;;;;;;;17.15;3.63;;;10.90;99.90;;;;;;4996593;28;20053;-85
2022/12/31 11:05:32;;;;;;;23.15;4.00;;;11.40;99.90;;;;;;4991244;28;20077;-84
2022/12/31 11:08:35;;;;;;;15.25;3.47;;;11.30;99.90;;;;;;5026769;28;20067;-85
2022/12/31 11:11:44;;;;;;;20.88;3.50;;;11.30;99.90;;;;;;4993761;28;20099;-85
2022/12/31 11:14:44;;;;;;;19.33;4.28;;;11.30;99.90;;;;;;4996214;28;20049;-85
2022/12/31 11:17:16;;;;;;;22.17;3.85;;;11.40;99.90;;;;;;4993065;28;20042;-85
2022/12/31 11:20:02;;;;;;;21.45;3.70;;;11.30;99.90;;;;;;5007688;28;20399;-85
2022/12/31 11:22:45;;;;;;;22.42;3.92;;;11.30;99.90;;;;;;5007787;28;20065;-85
2022/12/31 11:25:12;;;;;;;20.08;3.78;;;12.40;99.90;;;;;;5010650;28;20129;-84
2022/12/31 11:28:09;;;;;;;25.25;4.25;;;12.30;99.90;;;;;;4987885;28;20048;-84
2022/12/31 11:30:57;;;;;;;18.58;3.40;;;11.40;99.90;;;;;;4990548;28;20050;-87
2022/12/31 11:33:58;;;;;;;21.15;4.38;;;10.60;99.90;;;;;;4988678;28;20511;-85
2022/12/31 11:37:01;;;;;;;13.73;3.42;;;11.40;99.90;;;;;;4986931;28;20148;-88
2022/12/31 11:39:56;;;;;;;21.42;3.50;;;11.50;99.90;;;;;;4991039;28;20061;-84
2022/12/31 11:42:53;;;;;;;14.75;3.30;;;11.50;99.90;;;;;;4995095;28;20041;-87
2022/12/31 11:45:31;;;;;;;;;;;11.50;99.90;;;;;;4993201;28;20513;-87
2022/12/31 11:48:24;;;;;;;19.48;3.53;;;11.50;99.90;;;;;;5007503;28;19925;-87
2022/12/31 11:51:17;;;;;;;20.92;3.30;;;11.70;99.90;;;;;;4993235;28;20053;-85
2022/12/31 11:54:04;;;;;;;16.13;3.33;;;11.50;99.90;;;;;;4990397;28;20145;-86
2022/12/31 11:56:37;;;;;;;18.88;3.33;;;11.50;99.90;;;;;;4988751;28;20062;-88
2022/12/31 11:59:10;;;;;;;16.48;3.58;;;10.40;99.90;;;;;;5008365;28;20057;-83
2022/12/31 12:02:08;;;;;;;16.80;3.35;;;11.50;99.90;;;;;;4992985;28;20067;-87
2022/12/31 12:04:36;;;;;;;16.27;3.88;;;11.50;99.90;;;;;;5002238;28;20396;-87
2022/12/31 12:10:37;;;;;;;20.75;3.83;;;11.50;99.90;;;;;;4992576;28;20205;-86
2022/12/31 12:13:40;;;;;;;;;;;;;;;;;;;;;
2022/12/31 12:24:02;;;;;;;25.05;5.50;;;11.40;99.90;;;;;;5003730;28;20050;-91
2022/12/31 12:26:51;;;;;;;;;;;;;;;;;;;;;
2022/12/31 12:29:46;;;;;;;23.45;7.25;;;11.40;99.90;;;;;;5013051;28;19925;-88
2022/12/31 12:32:49;;;;;;;22.58;4.18;;;11.40;99.90;;;;;;4953670;28;20058;-92
2022/12/31 12:38:36;;;;;;;;;;;;;;;;;;;;;
2022/12/31 12:41:24;;;;;;;16.92;4.78;;;11.30;99.90;;;;;;5009396;28;20054;-87
2022/12/31 12:44:16;;;;;;;23.05;3.90;;;11.30;99.90;;;;;;5003056;28;20053;-89
2022/12/31 12:46:58;;;;;;;21.60;4.53;;;11.30;99.90;;;;;;4999105;28;20042;-89
2022/12/31 12:50:50;;;;;;;21.73;3.55;;;11.30;99.90;;;;;;4971866;28;20046;-88
2022/12/31 12:53:23;;;;;;;20.30;4.13;;;11.40;99.90;;;;;;4994846;28;20132;-87
2022/12/31 12:56:11;;;;;;;18.52;3.53;;;10.40;99.90;;;;;;5000489;28;20068;-85
2022/12/31 12:59:02;;;;;;;;;;;;;;;;;;;;;
2022/12/31 13:01:50;;;;;;;26.65;4.50;;;11.20;99.90;;;;;;5008809;28;20088;-86
2022/12/31 13:04:49;;;;;;;19.30;4.63;;;11.20;99.90;;;;;;4974691;28;20056;-85
2022/12/31 13:07:28;;;;;;;26.52;5.55;;;11.20;99.90;;;;;;4989424;28;20076;-85
2022/12/31 13:10:22;;;;;;;25.70;4.18;;;11.20;99.90;;;;;;4990702;28;20805;-85
2022/12/31 13:13:45;;;;;;;28.92;4.75;;;11.30;99.90;;;;;;5010645;28;20045;-86
2022/12/31 13:16:48;;;;;;;23.48;4.45;;;11.10;99.90;;;;;;4888146;29;20522;-85
2022/12/31 13:19:40;;;;;;;21.23;4.35;;;11.10;99.90;;;;;;5025134;28;20057;-85
2022/12/31 13:22:43;;;;;;;23.38;3.97;;;11.10;99.90;;;;;;5011636;28;20077;-85
2022/12/31 13:25:44;;;;;;;23.13;4.68;;;11.10;99.90;;;;;;5007836;28;20045;-87
2022/12/31 13:28:13;;;;;;;23.98;4.97;;;11.10;99.90;;;;;;4990301;28;20399;-86
2022/12/31 13:30:47;;;;;;;23.13;4.55;;;11.10;99.90;;;;;;4985999;28;20491;-85
2022/12/31 13:33:38;;;;;;;19.75;4.13;;;11.10;99.90;;;;;;4995953;28;20057;-86
2022/12/31 13:36:09;;;;;;;20.27;3.75;;;11.10;99.90;;;;;;4986896;28;20586;-85
2022/12/31 13:38:45;;;;;;;23.52;4.40;;;11.00;99.90;;;;;;4994218;28;20092;-86
2022/12/31 13:41:33;;;;;;;22.45;4.32;;;11.00;99.90;;;;;;4993023;28;20499;-85
2022/12/31 13:44:19;;;;;;;22.65;3.90;;;11.00;99.90;;;;;;4974833;28;20052;-86
2022/12/31 13:46:45;;;;;;;21.35;3.90;;;10.90;99.90;;;;;;5003628;28;20056;-84
2022/12/31 13:49:23;;;;;;;19.52;3.50;;;10.90;99.90;;;;;;5004103;28;20378;-89
2022/12/31 13:51:56;;;;;;;18.05;3.50;;;11.00;99.90;;;;;;5001207;28;20048;-87
2022/12/31 13:58:20;;;;;;;28.30;4.45;;;11.30;99.90;;;;;;4909143;29;20055;-88
2022/12/31 14:01:06;;;;;;;17.83;4.20;;;11.20;99.90;;;;;;4889923;29;20062;-90
2022/12/31 14:04:05;;;;;;;20.63;8.00;;;11.20;99.90;;;;;;4975792;28;20103;-88
2022/12/31 14:07:18;;;;;;;;;;;;;;;;;;;;;
2022/12/31 14:10:20;;;;;;;;;;;;;;;;;;;;;
2022/12/31 14:12:55;;;;;;;25.33;12.60;;;10.80;99.90;;;;;;5002663;28;20065;-85
2022/12/31 14:15:20;;;;;;;24.42;6.70;;;10.80;99.90;;;;;;5009559;28;20041;-87
2022/12/31 14:18:18;;;;;;;16.90;6.22;;;10.70;99.90;;;;;;5009889;28;20060;-88
2022/12/31 14:20:54;;;;;;;13.45;2.22;;;10.70;99.90;;;;;;4994015;28;20061;-84
2022/12/31 14:23:38;;;;;;;13.18;2.65;;;10.60;99.90;;;;;;4990793;28;20080;-84
2022/12/31 14:26:30;;;;;;;15.75;3.13;;;9.90;99.90;;;;;;5008282;28;20080;-85
2022/12/31 14:29:28;;;;;;;13.02;2.50;;;10.70;99.90;;;;;;5007804;28;20545;-90
2022/12/31 14:32:06;;;;;;;13.55;2.67;;;10.60;99.90;;;;;;5005966;28;20129;-85
2022/12/31 14:34:54;;;;;;;;;;;;;;;;;;;;;
2022/12/31 14:38:05;;;;;;;19.30;4.70;;;10.50;99.90;;;;;;5008808;28;20045;-86
2022/12/31 14:40:44;;;;;;;13.60;3.22;;;10.60;99.90;;;;;;4956294;28;20057;-86
2022/12/31 14:43:30;;;;;;;13.15;3.63;;;10.50;99.90;;;;;;4992084;28;20053;-84
2022/12/31 14:46:14;;;;;;;16.92;3.13;;;10.60;99.90;;;;;;4992724;28;20505;-84
2022/12/31 14:49:13;;;;;;;15.02;3.30;;;10.60;99.90;;;;;;4994332;28;20607;-85
2022/12/31 14:51:42;;;;;;;10.43;2.72;;;10.60;99.90;;;;;;4999986;28;20061;-86
2022/12/31 14:54:33;;;;;;;12.40;2.15;;;10.60;99.90;;;;;;4990338;28;20132;-85
2022/12/31 14:57:34;;;;;;;11.75;2.35;;;10.50;99.90;;;;;;5002039;28;20554;-84
2022/12/31 15:00:21;;;;;;;12.70;2.20;;;10.50;99.90;;;;;;4981462;28;20072;-84
2022/12/31 15:02:52;;;;;;;20.98;2.85;;;10.50;99.90;;;;;;4996444;28;20081;-85